logo
Rechercher aéroport 
image banner adimage banner adimage banner ad
image banner ad

FA0577 - Morning Star Airfield

Situé à , South Africa

ICAO - , IATA -

Données fournies par Airmate  

Information générale

Coordonnées: S33°45'33" E18°32'54"
Élévation : 226 feet MSL.
 
Voir autres Aéroports à Western Cape

Données opérationnelles

Special qualification required
Heure actuelle UTC:
Heure actuelle locale:
Météo à : - ( 0 km )
METAR: TJIG 231945Z 10011KT 10SM SCT030 BKN070 30/24 A3005
Voir NOTAMs / SUP AIP / TFR affectant cet aéroport [VIEW]
Fréquences de communication: [VIEW]

Pistes:

Coordonnées de l'aéroport

Adresse: South Africa

Vue satellite de FA0577